Date,TemperatureHighF,TemperatureAvgF,TemperatureLowF,DewpointHighF,DewpointAvgF,DewpointLowF,HumidityHigh,HumidityAvg,HumidityLow,PressureMaxIn,PressureMinIn,WindSpeedMaxMPH,WindSpeedAvgMPH,GustSpeedMaxMPH,PrecipitationSumIn
2013-3-1,65.0,61.5,58.0,56.0,50.5,46.0,78,68,52,29.97,29.88,9,4,15,0.00
2013-3-2,64.0,57.2,52.0,49.0,42.2,35.0,75,58,44,30.02,29.94,15,7,26,0.00
2013-3-3,60.0,53.3,49.0,45.0,41.1,38.0,76,64,49,30.14,29.95,15,6,25,0.00
2013-3-4,62.0,52.9,42.0,47.0,37.8,30.0,79,58,31,30.20,30.11,11,5,18,0.00
2013-3-5,72.0,62.3,50.0,57.0,52.6,45.0,86,72,56,30.17,30.07,10,3,20,0.00
2013-3-6,76.0,64.2,54.0,63.0,51.3,35.0,91,67,28,30.09,29.93,16,8,28,0.00
2013-3-7,68.0,58.1,47.0,56.0,45.7,36.0,86,64,43,30.17,30.06,11,5,17,0.00
2013-3-8,72.0,62.1,54.0,55.0,51.2,46.0,90,69,41,30.19,30.09,10,3,18,0.00
2013-3-9,72.0,64.6,56.0,57.0,53.5,49.0,86,68,56,30.18,30.09,10,4,19,0.00
2013-3-10,74.0,69.5,66.0,60.0,56.2,52.0,74,63,54,30.15,30.06,13,8,22,0.00
2013-3-11,76.0,71.4,68.0,63.0,60.5,58.0,75,69,57,30.10,29.94,11,7,21,0.00
2013-3-12,77.0,73.6,70.0,70.0,65.5,62.0,84,76,68,29.98,29.90,12,7,23,0.00
2013-3-13,72.0,65.2,57.0,65.0,55.6,47.0,91,73,44,30.11,29.96,10,5,21,0.00
2013-3-14,67.0,60.2,54.0,53.0,47.9,42.0,84,65,41,30.19,30.08,11,5,18,0.00
2013-3-15,69.0,61.4,52.0,55.0,50.6,45.0,79,68,55,30.24,30.14,9,4,16,0.00
2013-3-16,73.0,64.5,55.0,56.0,53.6,51.0,92,70,50,30.18,30.08,11,3,17,0.00
2013-3-17,75.0,67.5,59.0,62.0,58.1,54.0,88,72,58,30.14,30.02,11,4,22,0.00
2013-3-18,77.0,71.9,67.0,69.0,65.2,61.0,93,80,71,30.06,29.95,12,5,23,0.33
2013-3-19,77.0,71.7,68.0,69.0,67.2,65.0,93,86,68,30.00,29.83,11,3,22,0.33
2013-3-20,79.0,71.7,65.0,70.0,65.2,59.0,96,81,57,29.96,29.79,11,3,25,0.01
2013-3-21,74.0,65.5,59.0,61.0,54.7,48.0,90,70,43,29.93,29.81,10,4,17,0.01
2013-3-22,75.0,67.0,55.0,69.0,59.5,52.0,93,78,59,30.00,29.89,11,4,19,0.00
2013-3-23,83.0,76.5,71.0,75.0,71.2,69.0,93,84,68,29.98,29.78,13,5,23,0.00
2013-3-24,88.0,78.8,72.0,73.0,71.1,67.0,93,79,56,29.88,29.67,25,10,38,0.21
2013-3-25,78.0,72.9,66.0,72.0,59.3,36.0,93,66,31,29.97,29.73,11,6,17,0.22
2013-3-26,66.0,59.9,53.0,43.0,37.5,31.0,59,44,28,30.20,29.97,15,8,24,0.00
2013-3-27,65.0,56.0,46.0,48.0,41.5,32.0,71,59,44,30.24,30.16,11,5,21,0.00
2013-3-28,68.0,59.8,49.0,51.0,44.9,34.0,77,59,30,30.26,30.16,10,4,16,0.00
2013-3-29,71.0,63.6,55.0,54.0,49.8,45.0,74,61,49,30.28,30.19,10,3,18,0.00
2013-3-30,72.0,67.6,62.0,56.0,52.2,49.0,69,58,45,30.26,30.15,10,3,17,0.00
2013-3-31,76.0,70.7,60.0,65.0,59.8,-99.9,86,71,63,30.18,30.03,13,6,24,0.00